Impacts METAR Board
IDs:

KIAH - Houston/Bush Intl, TX, US

Updated at: 2200 UTC 25 May 2018
Potential Impact None Slight Moderate High
Time 25/10Z 25/11Z 25/12Z 25/13Z 25/14Z 25/15Z 25/16Z 25/17Z 25/18Z 25/19Z 25/20Z 25/21Z 25/22Z
Temp71 72 72 77 81 83 84 88 88 89 87 86 86
Dewpt71 71 71 74 75 74 73 72 71 72 73 76 72
Altim29.97 29.96 29.97 29.97 29.99 29.99 29.98 29.97 29.95 29.93 29.91 29.90 29.89
VIS10 10 10 10 10 10 10 10 10 10 10 10 10
CIG-- -- -- -- -- 21 25 -- -- 40 43 40 --
CoverFEWFEWFEWFEWSCTBKNBKNSCTSCTBKNBKNBKNSCT
FltCatVFRVFRVFRVFRVFRMVFRMVFRVFRVFRVFRVFRVFRVFR
WX----MIFG-----------------RA--
WDir032000220020028000120240170
WSpd0 3 0 0 4 0 4 5 0 0 9 3 7
WGst-- -- -- -- -- -- -- -- -- -- -- -- --
Raw hourly METARs
KIAH 250953Z 00000KT 10SM FEW250 22/22 A2997 RMK AO2 SLP148 T02170217
KIAH 251053Z 32003KT 10SM FEW018 FEW250 22/22 A2996 RMK AO2 SLP145 T02220217
KIAH 251153Z 00000KT 10SM MIFG FEW018 FEW065 22/22 A2997 RMK AO2 SLP149 ACC DSNT E T02220217 10228 20217 53002
KIAH 251253Z 00000KT 10SM FEW018 FEW070 25/23 A2997 RMK AO2 SLP150 TCU DSNT S T02500233
KIAH 251353Z 22004KT 10SM SCT018 27/24 A2999 RMK AO2 SLP153 T02720239
KIAH 251453Z 00000KT 10SM BKN021 28/23 A2999 RMK AO2 SLP154 T02830233 53005
KIAH 251553Z 20004KT 10SM BKN025 29/23 A2998 RMK AO2 SLP152 CB DSNT E T02890228 $
KIAH 251653Z 28005KT 10SM SCT032 31/22 A2997 RMK AO2 SLP148 TCU DSNT E AND SE T03110222
KIAH 251753Z 00000KT 10SM SCT034 31/22 A2995 RMK AO2 LTG DSNT SE SLP140 CB DSNT SE T03110217 10317 20222 58013
KIAH 251853Z 00000KT 10SM BKN040 32/22 A2993 RMK AO2 SLP132 T03170222
KIAH 251953Z 12009KT 10SM BKN043 31/23 A2991 RMK AO2 LTG DSNT SE SLP128 CB DSNT SE AND S T03060228
KIAH 252053Z 24003KT 10SM -RA FEW021 BKN040TCU BKN110 30/24 A2990 RMK AO2 LTG DSNT NE AND SW RAB30 SLP124 TCU NE-E AND SW-W CB DSNT NE AND S P0003 60003 T03000244 56018
KIAH 252153Z 17007KT 10SM SCT040 SCT130 SCT250 30/22 A2989 RMK AO2 LTG DSNT E RAE01 SLP120 TCU DSNT NE-E P0000 T03000222



Page loaded:  22:16 UTC  |   03:16 PM Pacific  |   04:16 PM Mountain  |   05:16 PM Central  |   06:16 PM Eastern

 

ADVISORIES

FORECASTS

FORECASTS

OBSERVATIONS

USER TOOLS

ABOUT US